sensor_id;sensor_type;location;lat;lon;timestamp;pressure;altitude;pressure_sealevel;temperature;humidity
66176;BME280;52977;44.816;20.538;2023-03-19T00:01:48;100000.78;;;8.44;49.32
66176;BME280;52977;44.816;20.538;2023-03-19T00:04:14;100014.13;;;8.46;48.75
66176;BME280;52977;44.816;20.538;2023-03-19T00:06:42;100005.00;;;8.36;49.08
66176;BME280;52977;44.816;20.538;2023-03-19T00:09:09;100021.53;;;8.40;49.30
66176;BME280;52977;44.816;20.538;2023-03-19T00:11:36;100004.66;;;8.24;49.54
66176;BME280;52977;44.816;20.538;2023-03-19T00:14:02;100022.41;;;8.35;49.44
66176;BME280;52977;44.816;20.538;2023-03-19T00:16:28;100024.94;;;8.32;49.40
66176;BME280;52977;44.816;20.538;2023-03-19T00:18:55;100020.66;;;8.12;49.41
66176;BME280;52977;44.816;20.538;2023-03-19T00:21:22;100008.97;;;8.11;49.84
66176;BME280;52977;44.816;20.538;2023-03-19T00:23:48;100006.97;;;8.17;49.22
66176;BME280;52977;44.816;20.538;2023-03-19T00:26:14;99995.16;;;8.08;49.18
66176;BME280;52977;44.816;20.538;2023-03-19T00:28:41;100035.22;;;8.02;49.85
66176;BME280;52977;44.816;20.538;2023-03-19T00:31:14;100030.16;;;7.95;50.06
66176;BME280;52977;44.816;20.538;2023-03-19T00:33:41;100017.19;;;7.73;49.92
66176;BME280;52977;44.816;20.538;2023-03-19T00:36:09;100033.41;;;7.97;50.26
66176;BME280;52977;44.816;20.538;2023-03-19T00:38:36;100039.56;;;8.03;49.29
66176;BME280;52977;44.816;20.538;2023-03-19T00:41:03;100044.28;;;7.78;50.94
66176;BME280;52977;44.816;20.538;2023-03-19T00:43:30;100043.66;;;7.67;50.01
66176;BME280;52977;44.816;20.538;2023-03-19T00:45:57;99995.47;;;7.35;50.57
66176;BME280;52977;44.816;20.538;2023-03-19T00:48:23;100031.59;;;7.55;50.43
66176;BME280;52977;44.816;20.538;2023-03-19T00:50:50;100039.91;;;7.63;50.65
66176;BME280;52977;44.816;20.538;2023-03-19T00:53:16;100043.34;;;7.69;50.50
66176;BME280;52977;44.816;20.538;2023-03-19T00:55:43;100037.16;;;7.82;50.51
66176;BME280;52977;44.816;20.538;2023-03-19T00:58:09;100009.84;;;7.74;49.72
66176;BME280;52977;44.816;20.538;2023-03-19T01:00:36;100044.09;;;7.75;49.79
66176;BME280;52977;44.816;20.538;2023-03-19T01:03:03;100028.56;;;7.75;50.84
66176;BME280;52977;44.816;20.538;2023-03-19T01:05:30;100026.66;;;7.76;50.56
66176;BME280;52977;44.816;20.538;2023-03-19T01:07:56;99989.31;;;7.67;49.76
66176;BME280;52977;44.816;20.538;2023-03-19T01:10:23;100021.28;;;7.90;49.51
66176;BME280;52977;44.816;20.538;2023-03-19T01:12:49;100003.22;;;7.80;49.96
66176;BME280;52977;44.816;20.538;2023-03-19T01:15:16;100010.28;;;7.81;49.38
66176;BME280;52977;44.816;20.538;2023-03-19T01:17:43;99985.75;;;7.48;49.77
66176;BME280;52977;44.816;20.538;2023-03-19T01:20:10;100034.47;;;7.63;50.04
66176;BME280;52977;44.816;20.538;2023-03-19T01:22:44;100038.94;;;7.54;50.52
66176;BME280;52977;44.816;20.538;2023-03-19T01:25:11;99986.44;;;7.40;50.77
66176;BME280;52977;44.816;20.538;2023-03-19T01:27:41;100034.66;;;7.67;49.77
66176;BME280;52977;44.816;20.538;2023-03-19T01:30:08;100027.78;;;7.75;49.75
66176;BME280;52977;44.816;20.538;2023-03-19T01:32:54;100006.16;;;7.64;49.38
66176;BME280;52977;44.816;20.538;2023-03-19T01:35:33;100021.38;;;7.84;49.53
66176;BME280;52977;44.816;20.538;2023-03-19T01:37:59;100019.28;;;7.95;48.13
66176;BME280;52977;44.816;20.538;2023-03-19T01:40:27;100038.09;;;8.11;48.89
66176;BME280;52977;44.816;20.538;2023-03-19T01:43:41;100005.13;;;7.79;49.02
66176;BME280;52977;44.816;20.538;2023-03-19T01:46:30;100029.19;;;8.05;49.45
66176;BME280;52977;44.816;20.538;2023-03-19T01:49:36;100031.75;;;8.15;48.71
66176;BME280;52977;44.816;20.538;2023-03-19T01:52:18;99958.72;;;7.76;48.92
66176;BME280;52977;44.816;20.538;2023-03-19T01:55:04;99973.28;;;7.99;47.90
66176;BME280;52977;44.816;20.538;2023-03-19T01:58:06;99995.72;;;8.24;48.29
66176;BME280;52977;44.816;20.538;2023-03-19T02:00:52;99981.78;;;8.11;47.91
66176;BME280;52977;44.816;20.538;2023-03-19T02:03:18;99992.28;;;8.18;48.24
66176;BME280;52977;44.816;20.538;2023-03-19T02:05:50;99997.72;;;8.18;48.15
66176;BME280;52977;44.816;20.538;2023-03-19T02:08:19;99992.06;;;8.14;47.89
66176;BME280;52977;44.816;20.538;2023-03-19T02:10:48;99988.25;;;8.15;48.50
66176;BME280;52977;44.816;20.538;2023-03-19T02:13:14;99953.53;;;7.93;48.08
66176;BME280;52977;44.816;20.538;2023-03-19T02:15:40;99977.38;;;8.15;47.80
66176;BME280;52977;44.816;20.538;2023-03-19T02:18:07;99965.78;;;8.10;47.81
66176;BME280;52977;44.816;20.538;2023-03-19T02:23:07;99941.66;;;7.89;48.42
66176;BME280;52977;44.816;20.538;2023-03-19T02:28:07;99969.66;;;8.03;48.76
66176;BME280;52977;44.816;20.538;2023-03-19T02:30:34;99968.94;;;7.98;48.79
66176;BME280;52977;44.816;20.538;2023-03-19T02:33:06;99966.53;;;7.96;48.59
66176;BME280;52977;44.816;20.538;2023-03-19T02:35:33;99979.16;;;8.06;48.42
66176;BME280;52977;44.816;20.538;2023-03-19T02:38:01;99982.56;;;8.12;48.79
66176;BME280;52977;44.816;20.538;2023-03-19T02:40:33;99975.31;;;8.07;48.84
66176;BME280;52977;44.816;20.538;2023-03-19T02:43:00;99974.59;;;8.01;49.24
66176;BME280;52977;44.816;20.538;2023-03-19T02:45:28;99932.56;;;7.80;49.25
66176;BME280;52977;44.816;20.538;2023-03-19T02:47:55;99958.91;;;7.98;49.23
66176;BME280;52977;44.816;20.538;2023-03-19T02:50:21;99917.09;;;7.61;49.26
66176;BME280;52977;44.816;20.538;2023-03-19T02:52:47;99970.94;;;7.92;49.57
66176;BME280;52977;44.816;20.538;2023-03-19T02:55:13;99962.19;;;7.95;49.95
66176;BME280;52977;44.816;20.538;2023-03-19T02:57:39;99955.19;;;7.75;49.86
66176;BME280;52977;44.816;20.538;2023-03-19T03:00:06;99955.72;;;7.77;49.84
66176;BME280;52977;44.816;20.538;2023-03-19T03:02:33;99979.34;;;7.77;49.70
66176;BME280;52977;44.816;20.538;2023-03-19T03:04:58;99975.75;;;7.81;49.64
66176;BME280;52977;44.816;20.538;2023-03-19T03:07:24;99985.75;;;7.86;49.61
66176;BME280;52977;44.816;20.538;2023-03-19T03:09:50;99982.34;;;7.94;49.01
66176;BME280;52977;44.816;20.538;2023-03-19T03:12:15;99975.00;;;7.95;49.37
66176;BME280;52977;44.816;20.538;2023-03-19T03:14:41;99975.28;;;7.93;49.80
66176;BME280;52977;44.816;20.538;2023-03-19T03:17:07;99956.44;;;7.83;49.23
66176;BME280;52977;44.816;20.538;2023-03-19T03:19:34;99926.50;;;7.69;49.09
66176;BME280;52977;44.816;20.538;2023-03-19T03:22:00;99973.38;;;7.94;49.56
66176;BME280;52977;44.816;20.538;2023-03-19T03:24:27;99944.75;;;7.82;49.01
66176;BME280;52977;44.816;20.538;2023-03-19T03:26:54;99969.31;;;7.77;49.26
66176;BME280;52977;44.816;20.538;2023-03-19T03:29:20;99942.31;;;7.81;49.29
66176;BME280;52977;44.816;20.538;2023-03-19T03:31:47;99912.88;;;7.55;49.22
66176;BME280;52977;44.816;20.538;2023-03-19T03:34:13;99938.59;;;7.77;49.11
66176;BME280;52977;44.816;20.538;2023-03-19T03:36:40;99892.84;;;7.51;49.40
66176;BME280;52977;44.816;20.538;2023-03-19T03:39:05;99931.53;;;7.76;48.80
66176;BME280;52977;44.816;20.538;2023-03-19T03:41:31;99927.53;;;7.73;49.16
66176;BME280;52977;44.816;20.538;2023-03-19T03:43:59;99931.00;;;7.60;49.26
66176;BME280;52977;44.816;20.538;2023-03-19T03:46:26;99925.78;;;7.63;49.17
66176;BME280;52977;44.816;20.538;2023-03-19T03:48:52;99910.88;;;7.61;48.72
66176;BME280;52977;44.816;20.538;2023-03-19T03:51:18;99931.13;;;7.68;48.80
66176;BME280;52977;44.816;20.538;2023-03-19T03:53:45;99911.69;;;7.61;48.72
66176;BME280;52977;44.816;20.538;2023-03-19T03:56:12;99897.97;;;7.52;48.91
66176;BME280;52977;44.816;20.538;2023-03-19T03:58:38;99926.34;;;7.60;49.25
66176;BME280;52977;44.816;20.538;2023-03-19T04:01:05;99910.31;;;7.45;49.11
66176;BME280;52977;44.816;20.538;2023-03-19T04:03:32;99919.91;;;7.56;49.11
66176;BME280;52977;44.816;20.538;2023-03-19T04:05:58;99924.91;;;7.49;48.75
66176;BME280;52977;44.816;20.538;2023-03-19T04:08:25;99888.03;;;7.29;49.48
66176;BME280;52977;44.816;20.538;2023-03-19T04:10:51;99902.94;;;7.31;49.76
66176;BME280;52977;44.816;20.538;2023-03-19T04:13:18;99930.44;;;7.44;49.76
66176;BME280;52977;44.816;20.538;2023-03-19T04:15:44;99856.34;;;7.05;50.00
66176;BME280;52977;44.816;20.538;2023-03-19T04:18:11;99894.91;;;7.21;49.71
66176;BME280;52977;44.816;20.538;2023-03-19T04:20:37;99930.34;;;7.49;49.60
66176;BME280;52977;44.816;20.538;2023-03-19T04:23:04;99917.34;;;7.46;49.74
66176;BME280;52977;44.816;20.538;2023-03-19T04:25:31;99828.19;;;6.82;49.39
66176;BME280;52977;44.816;20.538;2023-03-19T04:27:57;99905.03;;;7.34;49.33
66176;BME280;52977;44.816;20.538;2023-03-19T04:30:26;99939.50;;;7.53;49.26
66176;BME280;52977;44.816;20.538;2023-03-19T04:32:51;99932.03;;;7.45;49.40
66176;BME280;52977;44.816;20.538;2023-03-19T04:35:18;99940.91;;;7.50;49.27
66176;BME280;52977;44.816;20.538;2023-03-19T04:37:43;99942.53;;;7.51;49.45
66176;BME280;52977;44.816;20.538;2023-03-19T04:40:14;99940.34;;;7.53;49.95
66176;BME280;52977;44.816;20.538;2023-03-19T04:42:41;99948.25;;;7.50;49.40
66176;BME280;52977;44.816;20.538;2023-03-19T04:45:13;99933.06;;;7.49;49.69
66176;BME280;52977;44.816;20.538;2023-03-19T04:47:41;99876.38;;;7.09;49.55
66176;BME280;52977;44.816;20.538;2023-03-19T04:50:08;99935.41;;;7.36;49.89
66176;BME280;52977;44.816;20.538;2023-03-19T04:52:35;99923.53;;;7.32;49.71
66176;BME280;52977;44.816;20.538;2023-03-19T04:55:04;99921.34;;;7.34;49.57
66176;BME280;52977;44.816;20.538;2023-03-19T04:57:40;99890.25;;;7.08;49.35
66176;BME280;52977;44.816;20.538;2023-03-19T05:00:08;99932.78;;;7.31;49.47
66176;BME280;52977;44.816;20.538;2023-03-19T05:02:37;99898.75;;;7.01;49.88
66176;BME280;52977;44.816;20.538;2023-03-19T05:05:03;99887.59;;;7.03;49.73
66176;BME280;52977;44.816;20.538;2023-03-19T05:07:30;99915.97;;;7.29;49.86
66176;BME280;52977;44.816;20.538;2023-03-19T05:09:59;99917.06;;;7.28;49.53
66176;BME280;52977;44.816;20.538;2023-03-19T05:12:25;99891.63;;;7.05;49.75
66176;BME280;52977;44.816;20.538;2023-03-19T05:14:54;99929.34;;;7.26;49.73
66176;BME280;52977;44.816;20.538;2023-03-19T05:17:27;99919.78;;;7.28;49.74
66176;BME280;52977;44.816;20.538;2023-03-19T05:20:08;99923.63;;;7.27;49.70
66176;BME280;52977;44.816;20.538;2023-03-19T05:22:37;99917.06;;;7.28;50.11
66176;BME280;52977;44.816;20.538;2023-03-19T05:25:04;99933.00;;;7.35;49.80
66176;BME280;52977;44.816;20.538;2023-03-19T05:27:31;99939.03;;;7.32;49.39
66176;BME280;52977;44.816;20.538;2023-03-19T05:30:05;99872.56;;;6.91;49.32
66176;BME280;52977;44.816;20.538;2023-03-19T05:32:57;99882.09;;;6.89;49.36
66176;BME280;52977;44.816;20.538;2023-03-19T05:35:35;99936.25;;;7.37;49.27
66176;BME280;52977;44.816;20.538;2023-03-19T05:38:06;99903.00;;;7.07;49.09
66176;BME280;52977;44.816;20.538;2023-03-19T05:40:32;99950.59;;;7.18;48.91
66176;BME280;52977;44.816;20.538;2023-03-19T05:43:10;99955.31;;;7.32;49.26
66176;BME280;52977;44.816;20.538;2023-03-19T05:45:37;99968.00;;;7.36;49.56
66176;BME280;52977;44.816;20.538;2023-03-19T05:48:12;99967.13;;;7.41;49.20
66176;BME280;52977;44.816;20.538;2023-03-19T05:50:42;99956.34;;;7.36;49.28
66176;BME280;52977;44.816;20.538;2023-03-19T05:53:18;99970.66;;;7.42;49.12
66176;BME280;52977;44.816;20.538;2023-03-19T05:55:59;99939.81;;;7.32;48.87
66176;BME280;52977;44.816;20.538;2023-03-19T05:58:26;99924.22;;;7.24;48.36
66176;BME280;52977;44.816;20.538;2023-03-19T06:00:54;99947.91;;;7.38;48.58
66176;BME280;52977;44.816;20.538;2023-03-19T06:03:22;99957.31;;;7.45;48.69
66176;BME280;52977;44.816;20.538;2023-03-19T06:05:49;99974.22;;;7.56;48.34
66176;BME280;52977;44.816;20.538;2023-03-19T06:08:30;99967.09;;;7.60;47.99
66176;BME280;52977;44.816;20.538;2023-03-19T06:11:22;99965.13;;;7.66;47.63
66176;BME280;52977;44.816;20.538;2023-03-19T06:14:01;99954.13;;;7.57;47.58
66176;BME280;52977;44.816;20.538;2023-03-19T06:16:29;99968.47;;;7.77;47.31
66176;BME280;52977;44.816;20.538;2023-03-19T06:18:57;99958.72;;;7.76;47.47
66176;BME280;52977;44.816;20.538;2023-03-19T06:21:23;99976.94;;;7.75;47.75
66176;BME280;52977;44.816;20.538;2023-03-19T06:23:56;99958.00;;;7.70;47.35
66176;BME280;52977;44.816;20.538;2023-03-19T06:26:29;99932.69;;;7.56;46.89
66176;BME280;52977;44.816;20.538;2023-03-19T06:28:57;99981.94;;;7.87;47.12
66176;BME280;52977;44.816;20.538;2023-03-19T06:31:24;99968.19;;;7.78;47.13
66176;BME280;52977;44.816;20.538;2023-03-19T06:34:13;99951.25;;;7.67;46.64
66176;BME280;52977;44.816;20.538;2023-03-19T06:36:41;99993.59;;;7.87;46.72
66176;BME280;52977;44.816;20.538;2023-03-19T06:39:10;100003.50;;;7.97;46.78
66176;BME280;52977;44.816;20.538;2023-03-19T06:41:36;99927.69;;;7.63;46.67
66176;BME280;52977;44.816;20.538;2023-03-19T06:44:12;99992.53;;;8.02;45.98
66176;BME280;52977;44.816;20.538;2023-03-19T06:46:39;100000.28;;;8.09;46.74
66176;BME280;52977;44.816;20.538;2023-03-19T06:49:05;99998.09;;;8.11;46.94
66176;BME280;52977;44.816;20.538;2023-03-19T06:51:31;99943.53;;;7.75;46.15
66176;BME280;52977;44.816;20.538;2023-03-19T06:53:57;100025.31;;;8.25;46.50
66176;BME280;52977;44.816;20.538;2023-03-19T06:56:23;99951.63;;;7.94;46.37
66176;BME280;52977;44.816;20.538;2023-03-19T06:58:50;100007.59;;;8.28;46.17
66176;BME280;52977;44.816;20.538;2023-03-19T07:01:16;99969.81;;;8.12;45.95
66176;BME280;52977;44.816;20.538;2023-03-19T07:03:43;99982.56;;;8.12;46.00
66176;BME280;52977;44.816;20.538;2023-03-19T07:06:09;100022.56;;;8.44;45.84
66176;BME280;52977;44.816;20.538;2023-03-19T07:08:35;99995.22;;;8.35;46.49
66176;BME280;52977;44.816;20.538;2023-03-19T07:11:04;100020.28;;;8.51;45.97
66176;BME280;52977;44.816;20.538;2023-03-19T07:13:30;100014.13;;;8.46;46.10
66176;BME280;52977;44.816;20.538;2023-03-19T07:15:58;100024.50;;;8.58;46.32
66176;BME280;52977;44.816;20.538;2023-03-19T07:18:24;100007.69;;;8.55;45.87
66176;BME280;52977;44.816;20.538;2023-03-19T07:20:51;100025.22;;;8.63;45.49
66176;BME280;52977;44.816;20.538;2023-03-19T07:23:18;99992.41;;;8.41;46.08
66176;BME280;52977;44.816;20.538;2023-03-19T07:25:44;100025.31;;;8.72;46.20
66176;BME280;52977;44.816;20.538;2023-03-19T07:28:12;100008.09;;;8.77;46.38
66176;BME280;52977;44.816;20.538;2023-03-19T07:30:38;100028.03;;;8.86;45.72
66176;BME280;52977;44.816;20.538;2023-03-19T07:33:05;100010.81;;;8.77;46.01
66176;BME280;52977;44.816;20.538;2023-03-19T07:35:33;100010.69;;;8.96;45.92
66176;BME280;52977;44.816;20.538;2023-03-19T07:37:59;100015.34;;;8.95;45.47
66176;BME280;52977;44.816;20.538;2023-03-19T07:40:27;99971.19;;;8.70;46.96
66176;BME280;52977;44.816;20.538;2023-03-19T07:42:53;100027.16;;;9.04;46.63
66176;BME280;52977;44.816;20.538;2023-03-19T07:45:20;100004.53;;;9.04;45.63
66176;BME280;52977;44.816;20.538;2023-03-19T07:47:48;100018.25;;;9.13;45.42
66176;BME280;52977;44.816;20.538;2023-03-19T07:50:15;99991.50;;;9.15;45.22
66176;BME280;52977;44.816;20.538;2023-03-19T07:52:44;100006.84;;;9.24;46.17
66176;BME280;52977;44.816;20.538;2023-03-19T07:55:12;99980.31;;;9.16;46.04
66176;BME280;52977;44.816;20.538;2023-03-19T07:57:38;99975.16;;;9.15;45.67
66176;BME280;52977;44.816;20.538;2023-03-19T08:00:05;99973.56;;;9.14;45.55
66176;BME280;52977;44.816;20.538;2023-03-19T08:02:38;99991.19;;;9.30;45.30
66176;BME280;52977;44.816;20.538;2023-03-19T08:05:04;100026.16;;;9.51;45.88
66176;BME280;52977;44.816;20.538;2023-03-19T08:07:30;100015.47;;;9.54;45.00
66176;BME280;52977;44.816;20.538;2023-03-19T08:09:56;100019.66;;;9.61;45.65
66176;BME280;52977;44.816;20.538;2023-03-19T08:12:23;100034.28;;;9.65;45.29
66176;BME280;52977;44.816;20.538;2023-03-19T08:14:49;99973.53;;;9.28;45.08
66176;BME280;52977;44.816;20.538;2023-03-19T08:17:15;100035.34;;;9.78;45.15
66176;BME280;52977;44.816;20.538;2023-03-19T08:19:42;100042.41;;;9.79;45.15
66176;BME280;52977;44.816;20.538;2023-03-19T08:22:08;100039.59;;;9.84;45.39
66176;BME280;52977;44.816;20.538;2023-03-19T08:24:34;100039.44;;;9.89;45.56
66176;BME280;52977;44.816;20.538;2023-03-19T08:27:01;100010.75;;;9.69;45.62
66176;BME280;52977;44.816;20.538;2023-03-19T08:29:27;100046.03;;;9.88;45.05
66176;BME280;52977;44.816;20.538;2023-03-19T08:31:54;100028.75;;;9.92;44.95
66176;BME280;52977;44.816;20.538;2023-03-19T08:34:21;100048.88;;;10.05;45.03
66176;BME280;52977;44.816;20.538;2023-03-19T08:36:48;100008.41;;;9.76;45.49
66176;BME280;52977;44.816;20.538;2023-03-19T08:39:14;100006.91;;;9.92;45.52
66176;BME280;52977;44.816;20.538;2023-03-19T08:41:40;100049.13;;;10.18;45.74
66176;BME280;52977;44.816;20.538;2023-03-19T08:44:07;99977.47;;;9.81;45.28
66176;BME280;52977;44.816;20.538;2023-03-19T08:46:33;100033.03;;;10.07;46.09
66176;BME280;52977;44.816;20.538;2023-03-19T08:48:59;99950.91;;;9.64;46.15
66176;BME280;52977;44.816;20.538;2023-03-19T08:51:26;100047.50;;;10.39;46.30
66176;BME280;52977;44.816;20.538;2023-03-19T08:53:53;100025.25;;;10.23;45.31
66176;BME280;52977;44.816;20.538;2023-03-19T08:56:19;100059.00;;;10.59;45.12
66176;BME280;52977;44.816;20.538;2023-03-19T08:58:46;100060.00;;;10.63;44.86
66176;BME280;52977;44.816;20.538;2023-03-19T09:01:13;100059.53;;;10.61;45.49
66176;BME280;52977;44.816;20.538;2023-03-19T09:03:41;100055.50;;;10.58;45.67
66176;BME280;52977;44.816;20.538;2023-03-19T09:06:09;100058.44;;;10.71;45.96
66176;BME280;52977;44.816;20.538;2023-03-19T09:08:36;100055.06;;;10.74;45.59
66176;BME280;52977;44.816;20.538;2023-03-19T09:11:03;100027.13;;;10.68;45.14
66176;BME280;52977;44.816;20.538;2023-03-19T09:13:30;100067.53;;;10.89;45.56
66176;BME280;52977;44.816;20.538;2023-03-19T09:15:57;100037.25;;;10.76;45.89
66176;BME280;52977;44.816;20.538;2023-03-19T09:18:23;100058.22;;;10.90;45.53
66176;BME280;52977;44.816;20.538;2023-03-19T09:20:53;100064.69;;;11.03;45.35
66176;BME280;52977;44.816;20.538;2023-03-19T09:23:20;100071.28;;;11.10;45.49
66176;BME280;52977;44.816;20.538;2023-03-19T09:25:47;100061.81;;;11.08;45.11
66176;BME280;52977;44.816;20.538;2023-03-19T09:28:14;99985.84;;;10.70;45.20
66176;BME280;52977;44.816;20.538;2023-03-19T09:30:40;100057.47;;;11.16;45.44
66176;BME280;52977;44.816;20.538;2023-03-19T09:33:06;100031.72;;;10.99;45.51
66176;BME280;52977;44.816;20.538;2023-03-19T09:35:33;100010.97;;;10.89;45.08
66176;BME280;52977;44.816;20.538;2023-03-19T09:37:59;100072.78;;;11.34;45.25
66176;BME280;52977;44.816;20.538;2023-03-19T09:40:38;100079.28;;;11.47;45.54
66176;BME280;52977;44.816;20.538;2023-03-19T09:45:55;100064.50;;;11.57;44.80
66176;BME280;52977;44.816;20.538;2023-03-19T09:48:32;100013.31;;;11.31;46.39
66176;BME280;52977;44.816;20.538;2023-03-19T09:51:03;100064.50;;;11.74;45.28
66176;BME280;52977;44.816;20.538;2023-03-19T09:53:46;100060.81;;;11.88;45.22
66176;BME280;52977;44.816;20.538;2023-03-19T09:56:14;100065.28;;;11.92;45.27
66176;BME280;52977;44.816;20.538;2023-03-19T09:58:44;100068.03;;;11.92;44.40
66176;BME280;52977;44.816;20.538;2023-03-19T10:06:34;100055.34;;;12.05;43.93
66176;BME280;52977;44.816;20.538;2023-03-19T10:09:36;100059.38;;;12.08;44.13
66176;BME280;52977;44.816;20.538;2023-03-19T10:17:49;100047.91;;;12.23;43.41
66176;BME280;52977;44.816;20.538;2023-03-19T10:24:01;100039.50;;;12.37;44.09
66176;BME280;52977;44.816;20.538;2023-03-19T10:26:18;100000.44;;;12.10;43.85
66176;BME280;52977;44.816;20.538;2023-03-19T10:28:54;99999.63;;;12.19;42.52
66176;BME280;52977;44.816;20.538;2023-03-19T10:31:39;100042.22;;;12.55;42.62
66176;BME280;52977;44.816;20.538;2023-03-19T10:36:35;99986.75;;;12.28;43.21
66176;BME280;52977;44.816;20.538;2023-03-19T10:39:02;100030.09;;;12.64;42.98
66176;BME280;52977;44.816;20.538;2023-03-19T10:41:40;100033.78;;;12.69;42.50
66176;BME280;52977;44.816;20.538;2023-03-19T10:44:30;100028.44;;;12.81;42.49
66176;BME280;52977;44.816;20.538;2023-03-19T10:46:58;99973.47;;;12.47;41.85
66176;BME280;52977;44.816;20.538;2023-03-19T10:49:25;100018.88;;;12.87;41.14
66176;BME280;52977;44.816;20.538;2023-03-19T10:51:51;100021.44;;;12.92;41.84
66176;BME280;52977;44.816;20.538;2023-03-19T10:54:23;100000.53;;;12.79;42.39
66176;BME280;52977;44.816;20.538;2023-03-19T10:56:54;100013.34;;;12.96;42.94
66176;BME280;52977;44.816;20.538;2023-03-19T10:59:46;99992.59;;;12.86;42.22
66176;BME280;52977;44.816;20.538;2023-03-19T11:02:18;100001.97;;;12.85;42.49
66176;BME280;52977;44.816;20.538;2023-03-19T11:04:45;99982.47;;;12.87;42.45
66176;BME280;52977;44.816;20.538;2023-03-19T11:07:13;100005.56;;;13.07;42.19
66176;BME280;52977;44.816;20.538;2023-03-19T11:09:47;99986.84;;;13.09;40.88
66176;BME280;52977;44.816;20.538;2023-03-19T11:12:21;99986.91;;;13.21;40.65
66176;BME280;52977;44.816;20.538;2023-03-19T11:14:51;99983.84;;;13.23;40.79
66176;BME280;52977;44.816;20.538;2023-03-19T11:17:26;99966.19;;;13.11;40.48
66176;BME280;52977;44.816;20.538;2023-03-19T11:19:55;99949.09;;;13.14;40.15
66176;BME280;52977;44.816;20.538;2023-03-19T11:22:28;99913.13;;;12.95;39.65
66176;BME280;52977;44.816;20.538;2023-03-19T11:25:04;99960.88;;;13.36;40.06
66176;BME280;52977;44.816;20.538;2023-03-19T11:27:39;99928.81;;;13.28;40.07
66176;BME280;52977;44.816;20.538;2023-03-19T11:30:25;99957.16;;;13.62;39.58
66176;BME280;52977;44.816;20.538;2023-03-19T11:35:36;99959.75;;;13.92;39.92
66176;BME280;52977;44.816;20.538;2023-03-19T11:38:15;99962.00;;;14.11;40.89
66176;BME280;52977;44.816;20.538;2023-03-19T11:40:56;99958.00;;;14.21;41.74
66176;BME280;52977;44.816;20.538;2023-03-19T11:51:45;99947.59;;;14.51;41.17
66176;BME280;52977;44.816;20.538;2023-03-19T11:54:22;99913.84;;;14.26;41.31
66176;BME280;52977;44.816;20.538;2023-03-19T11:56:57;99946.69;;;14.59;40.30
66176;BME280;52977;44.816;20.538;2023-03-19T12:10:26;99932.75;;;15.01;40.57
66176;BME280;52977;44.816;20.538;2023-03-19T12:34:51;99913.47;;;15.70;38.37
66176;BME280;52977;44.816;20.538;2023-03-19T12:37:45;99858.88;;;15.57;37.91
66176;BME280;52977;44.816;20.538;2023-03-19T12:40:34;99902.53;;;15.86;37.22
66176;BME280;52977;44.816;20.538;2023-03-19T12:43:05;99904.78;;;15.97;37.47
66176;BME280;52977;44.816;20.538;2023-03-19T12:45:37;99903.28;;;15.99;37.52
66176;BME280;52977;44.816;20.538;2023-03-19T12:48:10;99904.22;;;16.07;36.97
66176;BME280;52977;44.816;20.538;2023-03-19T12:50:41;99899.78;;;16.18;37.25
66176;BME280;52977;44.816;20.538;2023-03-19T12:56:48;99899.97;;;16.42;35.89
66176;BME280;52977;44.816;20.538;2023-03-19T12:59:45;99895.41;;;16.49;36.09
66176;BME280;52977;44.816;20.538;2023-03-19T13:02:50;99886.28;;;16.45;35.99
66176;BME280;52977;44.816;20.538;2023-03-19T13:11:04;99813.34;;;16.39;36.21
66176;BME280;52977;44.816;20.538;2023-03-19T13:21:58;99871.66;;;16.77;35.17
66176;BME280;52977;44.816;20.538;2023-03-19T13:24:29;99850.91;;;16.83;35.35
66176;BME280;52977;44.816;20.538;2023-03-19T13:26:58;99861.47;;;16.97;35.24
66176;BME280;52977;44.816;20.538;2023-03-19T13:29:28;99853.63;;;16.99;35.20
66176;BME280;52977;44.816;20.538;2023-03-19T13:32:22;99867.56;;;17.06;36.32
66176;BME280;52977;44.816;20.538;2023-03-19T13:34:49;99864.31;;;17.00;35.51
66176;BME280;52977;44.816;20.538;2023-03-19T13:37:19;99872.94;;;16.99;35.35
66176;BME280;52977;44.816;20.538;2023-03-19T13:39:47;99815.84;;;16.64;35.33
66176;BME280;52977;44.816;20.538;2023-03-19T13:42:37;99847.88;;;16.88;35.47
66176;BME280;52977;44.816;20.538;2023-03-19T13:47:47;99842.47;;;16.75;35.09
66176;BME280;52977;44.816;20.538;2023-03-19T13:50:26;99849.16;;;16.74;35.49
66176;BME280;52977;44.816;20.538;2023-03-19T13:55:51;99854.66;;;16.90;35.74
66176;BME280;52977;44.816;20.538;2023-03-19T13:58:19;99789.56;;;16.50;35.54
66176;BME280;52977;44.816;20.538;2023-03-19T14:01:05;99844.53;;;16.79;35.90
66176;BME280;52977;44.816;20.538;2023-03-19T14:03:33;99836.59;;;16.77;35.89
66176;BME280;52977;44.816;20.538;2023-03-19T14:06:00;99788.34;;;16.48;35.56
66176;BME280;52977;44.816;20.538;2023-03-19T14:08:41;99840.53;;;16.76;35.64
66176;BME280;52977;44.816;20.538;2023-03-19T14:11:09;99843.72;;;16.78;35.52
66176;BME280;52977;44.816;20.538;2023-03-19T14:13:40;99824.47;;;16.62;35.40
66176;BME280;52977;44.816;20.538;2023-03-19T14:16:17;99830.22;;;16.73;35.26
66176;BME280;52977;44.816;20.538;2023-03-19T14:18:47;99820.88;;;16.78;35.47
66176;BME280;52977;44.816;20.538;2023-03-19T14:21:16;99831.50;;;16.95;35.39
66176;BME280;52977;44.816;20.538;2023-03-19T14:27:01;99825.69;;;17.00;35.45
66176;BME280;52977;44.816;20.538;2023-03-19T14:29:29;99804.47;;;16.85;35.81
66176;BME280;52977;44.816;20.538;2023-03-19T14:32:04;99784.59;;;16.75;35.67
66176;BME280;52977;44.816;20.538;2023-03-19T14:34:39;99780.38;;;16.62;36.13
66176;BME280;52977;44.816;20.538;2023-03-19T14:39:58;99817.34;;;16.97;35.80
66176;BME280;52977;44.816;20.538;2023-03-19T14:43:04;99799.19;;;16.76;35.92
66176;BME280;52977;44.816;20.538;2023-03-19T14:48:33;99806.22;;;16.73;36.02
66176;BME280;52977;44.816;20.538;2023-03-19T14:53:47;99810.41;;;16.67;37.42